Time;durP1;ratioP1;P1;durP2;ratioP2;P2;SDS_P1;SDS_P2;PMS_P1;PMS_P2;Temp;Humidity;BMP_temperature;BMP_pressure;BME280_temperature;BME280_humidity;BME280_pressure;Samples;Min_cycle;Max_cycle;Signal;HPM_P1;HPM_P2
2021/06/02 00:05:37;;;;;;;;;;;;;;;11.93;66.37;99990.19;4205812;34;33532;-89
2021/06/02 00:08:22;;;;;;;;;;;;;;;11.99;66.19;99997.53;4208595;34;32769;-89
2021/06/02 00:10:59;;;;;;;;;;;;;;;12.05;66.63;100001.38;4211570;33;32698;-96
2021/06/02 00:13:35;;;;;;;;;;;;;;;12.03;66.69;99993.44;4218953;34;35512;-95
2021/06/02 00:16:29;;;;;;;;;;;;;;;12.21;66.61;99989.47;4198179;33;33532;-96
2021/06/02 00:19:04;;;;;;;;;;;;;;;12.31;66.60;99985.41;4179284;34;32723;-96
2021/06/02 00:21:54;;;;;;;;;;;;;;;12.37;66.79;99983.81;4198233;33;32267;-89
2021/06/02 00:24:27;;;;;;;;;;;;;;;12.43;66.62;99993.03;4181039;34;34733;-88
2021/06/02 00:27:03;;;;;;;;;;;;;;;12.47;66.61;99987.03;4207821;34;35186;-96
2021/06/02 00:29:36;;;;;;;;;;;;;;;12.56;66.43;99992.31;4202978;34;34602;-87
2021/06/02 00:35:09;;;;;;;;;;;;;;;12.57;66.57;99994.00;4202810;34;33052;-88
2021/06/02 00:38:20;;;;;;;;;;;;;;;12.65;66.37;99996.56;4356412;28;34537;-93
2021/06/02 00:40:55;;;;;;;;;;;;;;;12.64;66.45;99992.19;4658062;28;34001;-88
2021/06/02 00:43:31;;;;;;;;;;;;;;;12.72;66.57;99989.31;4331819;28;33021;-89
2021/06/02 00:46:05;;;;;;;;;;;;;;;12.45;67.14;99986.37;4307175;28;35606;-88
2021/06/02 00:55:23;;;;;;;;;;;;;;;12.87;66.21;99989.25;4166541;33;33071;-90
2021/06/02 00:58:31;;;;;;;;;;;;;;;12.95;65.50;99991.81;4192787;34;32525;-87
2021/06/02 01:01:04;;;;;;;;;;;;;;;13.10;65.12;99994.44;4206757;34;34867;-88
2021/06/02 01:03:37;;;;;;;;;;;;;;;12.99;65.75;100000.41;4214992;34;33866;-87
2021/06/02 01:06:17;;;;;;;;;;;;;;;12.83;66.62;99999.66;4327380;28;33187;-91
2021/06/02 01:09:11;;;;;;;;;;;;;;;12.81;67.00;100001.72;4490651;28;34828;31
2021/06/02 01:12:08;;;;;;;;;;;;;;;12.98;66.64;100004.13;4460221;28;35389;31
2021/06/02 01:24:19;;;;;;;;;;;;;;;13.05;66.09;100007.75;4431569;28;19980;-88
2021/06/02 01:27:31;;;;;;;;;;;;;;;13.32;65.57;100003.34;4446929;28;37112;-89
2021/06/02 01:30:41;;;;;;;;;;;;;;;13.31;65.96;100014.38;3972065;34;35184;-88
2021/06/02 01:33:17;;;;;;;;;;;;;;;13.33;66.39;99998.75;4227436;28;33664;-90
2021/06/02 01:39:24;;;;;;;;;;;;;;;13.45;66.06;100010.75;4217893;28;33994;-88
2021/06/02 01:45:33;;;;;;;;;;;;;;;13.50;65.83;100004.72;4459711;28;33590;31
2021/06/02 01:49:02;;;;;;;;;;;;;;;13.52;65.70;100000.78;4293386;28;34823;31
2021/06/02 01:52:03;;;;;;;;;;;;;;;13.35;66.51;100000.28;4216164;28;34191;-88
2021/06/02 01:55:18;;;;;;;;;;;;;;;13.40;66.49;99999.69;4663956;28;33421;31
2021/06/02 01:58:03;;;;;;;;;;;;;;;13.43;66.41;100010.13;4360135;28;33841;-88
2021/06/02 02:00:55;;;;;;;;;;;;;;;13.35;66.48;99999.41;4304049;28;34522;-88
2021/06/02 02:04:00;;;;;;;;;;;;;;;13.45;66.34;99996.38;4440862;28;33995;31
2021/06/02 02:07:04;;;;;;;;;;;;;;;13.54;66.19;99998.69;4498053;28;32547;31
2021/06/02 02:17:24;;;;;;;;;;;;;;;13.36;67.21;100003.81;4434568;28;33781;-88
2021/06/02 02:20:03;;;;;;;;;;;;;;;13.56;66.52;100007.50;4207132;28;31991;-89
2021/06/02 02:29:38;;;;;;;;;;;;;;;13.60;66.60;100006.03;4405817;28;33566;-87
2021/06/02 02:32:36;;;;;;;;;;;;;;;13.41;67.25;100002.19;4275307;28;32883;-90
2021/06/02 02:35:14;;;;;;;;;;;;;;;13.63;66.56;100003.97;4466185;28;33335;-89
2021/06/02 02:38:09;;;;;;;;;;;;;;;13.71;66.12;100001.94;4311754;28;39173;-96
2021/06/02 02:41:33;;;;;;;;;;;;;;;13.70;65.73;100010.28;4234280;33;33977;-87
2021/06/02 02:44:12;;;;;;;;;;;;;;;13.70;65.54;100005.69;4215410;33;33613;-88
2021/06/02 02:46:51;;;;;;;;;;;;;;;13.69;65.17;100009.44;4254143;28;33955;-87
2021/06/02 02:49:34;;;;;;;;;;;;;;;13.42;66.00;100003.03;4239626;28;33777;-90
2021/06/02 02:52:11;;;;;;;;;;;;;;;13.23;66.17;100005.38;4292119;28;33622;-88
2021/06/02 02:55:03;;;;;;;;;;;;;;;12.88;66.87;100002.59;4240057;28;32822;-89
2021/06/02 02:57:39;;;;;;;;;;;;;;;13.16;65.71;100003.63;4303505;28;33837;-88
2021/06/02 03:00:46;;;;;;;;;;;;;;;13.12;65.47;100003.22;4418760;28;34873;-89
2021/06/02 03:04:07;;;;;;;;;;;;;;;12.96;65.85;100015.19;4454133;28;34197;-88
2021/06/02 03:07:37;;;;;;;;;;;;;;;12.67;66.38;100010.78;3988905;33;33900;-90
2021/06/02 03:10:53;;;;;;;;;;;;;;;12.85;65.68;100016.56;4328369;28;35209;-87
2021/06/02 03:13:33;;;;;;;;;;;;;;;12.57;66.66;100026.53;4394167;28;31839;-88
2021/06/02 03:16:19;;;;;;;;;;;;;;;12.57;66.28;100026.53;4514365;28;33710;-87
2021/06/02 03:19:33;;;;;;;;;;;;;;;12.75;65.39;100028.78;4288447;28;33517;-87
2021/06/02 03:23:07;;;;;;;;;;;;;;;12.58;65.42;100029.03;4287543;28;35510;-88
2021/06/02 03:26:08;;;;;;;;;;;;;;;12.43;65.66;100037.25;4328160;28;32662;-87
2021/06/02 03:28:40;;;;;;;;;;;;;;;12.26;66.20;100036.66;4442870;28;32484;-88
2021/06/02 03:31:26;;;;;;;;;;;;;;;12.16;66.48;100045.06;4594790;28;34030;-88
2021/06/02 03:34:15;;;;;;;;;;;;;;;11.87;67.18;100042.38;4250632;28;34633;-88
2021/06/02 03:36:49;;;;;;;;;;;;;;;12.02;66.72;100045.97;4366545;28;33859;-88
2021/06/02 03:42:59;;;;;;;;;;;;;;;11.95;66.39;100042.31;4213602;28;34394;-89
2021/06/02 03:46:14;;;;;;;;;;;;;;;11.96;66.45;100050.25;4333312;28;34731;31
2021/06/02 03:48:54;;;;;;;;;;;;;;;12.07;66.13;100057.06;4359739;28;33466;-87
2021/06/02 03:51:50;;;;;;;;;;;;;;;11.94;66.53;100059.59;4496104;28;34549;-88
2021/06/02 03:54:41;;;;;;;;;;;;;;;11.89;66.41;100062.00;4205479;33;33938;-88
2021/06/02 03:57:39;;;;;;;;;;;;;;;11.82;67.16;100068.16;4365414;28;34062;-88
2021/06/02 04:00:45;;;;;;;;;;;;;;;11.94;66.77;100070.41;4274186;28;35318;-88
2021/06/02 04:03:22;;;;;;;;;;;;;;;12.04;66.45;100068.25;4255546;28;33765;-88
2021/06/02 04:06:13;;;;;;;;;;;;;;;11.80;67.46;100077.50;4189477;34;33728;-89
2021/06/02 04:09:13;;;;;;;;;;;;;;;11.94;67.42;100075.84;4202377;34;33755;-88
2021/06/02 04:21:29;;;;;;;;;;;;;;;12.24;67.01;100082.03;4194226;28;20582;-93
2021/06/02 04:24:26;;;;;;;;;;;;;;;12.33;66.98;100085.50;4203833;34;35663;-90
2021/06/02 04:27:19;;;;;;;;;;;;;;;12.22;67.06;100083.28;4194106;34;33664;-88
2021/06/02 04:29:52;;;;;;;;;;;;;;;12.26;67.44;100081.84;4190009;28;33744;-96
2021/06/02 04:32:25;;;;;;;;;;;;;;;12.49;67.17;100087.97;4182962;34;33476;-87
2021/06/02 04:34:58;;;;;;;;;;;;;;;12.69;66.48;100095.47;4174992;34;34338;-87
2021/06/02 04:37:32;;;;;;;;;;;;;;;12.87;66.12;100089.59;4171554;34;34631;-87
2021/06/02 04:40:06;;;;;;;;;;;;;;;12.63;67.19;100090.81;4177210;34;33158;-96
2021/06/02 04:42:41;;;;;;;;;;;;;;;13.00;66.03;100097.03;4177836;34;34308;-87
2021/06/02 04:45:16;;;;;;;;;;;;;;;12.95;66.51;100094.06;4170950;34;34845;-87
2021/06/02 04:47:49;;;;;;;;;;;;;;;13.09;66.46;100095.88;4162660;34;35143;-96
2021/06/02 04:50:44;;;;;;;;;;;;;;;13.12;66.67;100094.66;4169329;34;31216;-96
2021/06/02 04:53:48;;;;;;;;;;;;;;;12.95;67.29;100104.91;4175201;34;32441;-91
2021/06/02 05:03:50;;;;;;;;;;;;;;;13.49;66.08;100115.22;4234810;33;32064;-88
2021/06/02 05:06:29;;;;;;;;;;;;;;;13.40;66.83;100117.25;4409106;28;35693;-89
2021/06/02 05:09:21;;;;;;;;;;;;;;;13.55;66.80;100116.31;4224894;28;33126;31
2021/06/02 05:12:34;;;;;;;;;;;;;;;13.83;66.51;100119.03;4168178;28;35328;31
2021/06/02 05:15:47;;;;;;;;;;;;;;;14.09;65.69;100117.47;4479911;28;37888;31
2021/06/02 05:18:41;;;;;;;;;;;;;;;13.94;66.42;100121.16;4232294;33;32562;-88
2021/06/02 05:27:36;;;;;;;;;;;;;;;14.43;66.44;100130.19;4399742;28;19955;-96
2021/06/02 05:31:09;;;;;;;;;;;;;;;14.85;65.00;100121.97;4095405;34;34909;-86
2021/06/02 05:33:49;;;;;;;;;;;;;;;15.09;63.97;100119.69;4199943;34;34850;-87
2021/06/02 05:36:36;;;;;;;;;;;;;;;15.32;63.49;100116.56;4230305;28;34942;31
2021/06/02 05:39:25;;;;;;;;;;;;;;;15.38;62.20;100114.91;4374462;28;34009;-87
2021/06/02 05:45:15;;;;;;;;;;;;;;;15.83;60.73;100118.63;4221120;28;20006;-89
2021/06/02 05:54:43;;;;;;;;;;;;;;;16.61;58.67;100114.16;4206723;28;35247;31
2021/06/02 05:57:42;;;;;;;;;;;;;;;16.92;58.00;100115.28;4460270;28;33741;-88
2021/06/02 06:00:50;;;;;;;;;;;;;;;17.02;56.75;100120.22;4385849;28;20004;-88
2021/06/02 06:04:03;;;;;;;;;;;;;;;17.12;55.67;100117.84;4388912;28;33504;-88
2021/06/02 06:06:45;;;;;;;;;;;;;;;17.49;53.26;100119.88;4284395;28;33614;-87
2021/06/02 06:09:42;;;;;;;;;;;;;;;17.61;51.62;100127.09;4353457;28;34269;31
2021/06/02 06:15:49;;;;;;;;;;;;;;;18.23;51.06;100131.75;4345420;28;32788;31
2021/06/02 06:18:43;;;;;;;;;;;;;;;18.65;50.75;100139.22;4259973;28;33772;-91
2021/06/02 06:21:27;;;;;;;;;;;;;;;18.76;48.87;100141.19;4220121;28;32360;-83
2021/06/02 06:24:00;;;;;;;;;;;;;;;18.92;49.51;100138.87;4264481;28;34492;-87
2021/06/02 06:27:09;;;;;;;;;;;;;;;19.01;50.44;100142.97;4219762;33;33587;-96
2021/06/02 06:30:04;;;;;;;;;;;;;;;19.15;47.15;100149.09;4217865;34;34175;-96
2021/06/02 06:33:01;;;;;;;;;;;;;;;19.38;47.54;100143.66;4329902;28;34446;-88
2021/06/02 06:35:44;;;;;;;;;;;;;;;19.33;46.69;100145.44;4185814;34;33267;-88
2021/06/02 06:38:28;;;;;;;;;;;;;;;19.35;45.31;100143.28;4227479;28;34573;-86
2021/06/02 06:41:11;;;;;;;;;;;;;;;19.83;46.06;100138.72;4231706;33;34072;-92
2021/06/02 06:43:46;;;;;;;;;;;;;;;19.60;44.31;100134.03;4500150;28;33981;-87
2021/06/02 06:46:30;;;;;;;;;;;;;;;19.62;42.91;100131.87;4330720;28;34816;-87
2021/06/02 06:49:53;;;;;;;;;;;;;;;19.82;41.02;100137.03;4394886;28;33218;-95
2021/06/02 06:53:18;;;;;;;;;;;;;;;19.84;43.29;100135.72;4332484;28;20045;-95
2021/06/02 06:56:20;;;;;;;;;;;;;;;20.05;42.73;100134.28;4212091;33;35058;-92
2021/06/02 06:59:09;;;;;;;;;;;;;;;20.19;40.45;100136.75;4185699;34;34156;-88
2021/06/02 07:01:43;;;;;;;;;;;;;;;20.09;40.39;100123.66;4212447;33;33128;-96
2021/06/02 07:04:31;;;;;;;;;;;;;;;20.19;41.46;100136.75;4559483;28;32840;-89
2021/06/02 07:10:32;;;;;;;;;;;;;;;20.50;41.33;100138.25;4545251;28;19990;-88
2021/06/02 07:13:07;;;;;;;;;;;;;;;20.14;40.02;100136.66;4334909;28;33282;-88
2021/06/02 07:18:59;;;;;;;;;;;;;;;20.86;39.63;100141.72;4431402;28;20007;-88
2021/06/02 07:21:40;;;;;;;;;;;;;;;21.01;38.94;100143.91;4483045;28;33384;-87
2021/06/02 07:24:36;;;;;;;;;;;;;;;20.66;38.23;100142.16;4300695;28;33993;-88
2021/06/02 07:44:20;;;;;;;;;;;;;;;22.10;34.22;100152.00;3080732;28;35163;31
2021/06/02 07:47:17;;;;;;;;;;;;;;;21.99;34.24;100153.75;4279430;28;32308;31
2021/06/02 07:49:51;;;;;;;;;;;;;;;22.08;33.19;100160.53;4212153;33;32937;-88
2021/06/02 07:55:54;;;;;;;;;;;;;;;22.61;34.18;100154.63;4688015;28;34932;31
2021/06/02 08:29:32;;;;;;;;;;;;;;;22.82;34.95;100170.28;3000148;28;20012;-89
2021/06/02 08:46:07;;;;;;;;;;;;;;;22.78;31.88;100160.84;4956669;28;20477;31
2021/06/02 08:49:11;;;;;;;;;;;;;;;23.32;32.49;100168.31;4389492;28;36653;-90
2021/06/02 08:51:44;;;;;;;;;;;;;;;23.18;33.45;100167.09;4186038;34;35878;-88
2021/06/02 08:54:28;;;;;;;;;;;;;;;23.93;32.21;100169.94;4179408;34;32556;-95
2021/06/02 08:57:10;;;;;;;;;;;;;;;23.17;30.89;100162.66;4190771;34;33973;-91
2021/06/02 09:00:00;;;;;;;;;;;;;;;22.63;30.88;100158.75;4183931;34;34483;-90
2021/06/02 09:02:38;;;;;;;;;;;;;;;23.25;30.90;100164.97;4180173;34;33984;-95
2021/06/02 09:05:12;;;;;;;;;;;;;;;23.69;31.72;100155.66;4187064;34;33564;-92
2021/06/02 09:07:49;;;;;;;;;;;;;;;23.72;32.15;100166.19;4162691;34;34488;-89
2021/06/02 09:10:37;;;;;;;;;;;;;;;23.51;33.23;100156.91;4470762;28;33958;31
2021/06/02 09:13:25;;;;;;;;;;;;;;;23.85;30.93;100157.47;4512500;28;32712;-95
2021/06/02 09:16:01;;;;;;;;;;;;;;;23.76;30.90;100159.03;4278238;28;32074;-89
2021/06/02 09:18:33;;;;;;;;;;;;;;;24.05;31.58;100156.75;4192390;34;34120;-89
2021/06/02 09:28:06;;;;;;;;;;;;;;;24.11;28.84;100147.41;4775422;28;20348;31
2021/06/02 09:30:40;;;;;;;;;;;;;;;24.40;31.95;100147.00;4183994;34;34148;-90
2021/06/02 09:33:28;;;;;;;;;;;;;;;24.60;31.69;100139.94;4160410;34;35306;-96
2021/06/02 09:36:06;;;;;;;;;;;;;;;24.46;31.00;100151.44;4159255;34;34740;-89
2021/06/02 09:38:40;;;;;;;;;;;;;;;24.34;31.26;100142.53;4170938;34;32596;-96
2021/06/02 09:41:29;;;;;;;;;;;;;;;24.37;30.19;100146.69;4156285;34;34278;-90
2021/06/02 09:44:15;;;;;;;;;;;;;;;24.28;30.35;100143.62;4182469;34;33972;-95
2021/06/02 09:50:30;;;;;;;;;;;;;;;24.35;27.93;100144.22;4838302;28;20025;-94
2021/06/02 09:53:25;;;;;;;;;;;;;;;24.76;29.89;100146.31;1850953;28;33144;-92
2021/06/02 09:59:13;;;;;;;;;;;;;;;25.30;27.20;100137.59;4023165;34;20097;-88
2021/06/02 10:08:58;;;;;;;;;;;;;;;25.32;27.06;100118.78;4515157;28;19994;-88
2021/06/02 10:15:15;;;;;;;;;;;;;;;25.62;26.62;100121.81;4325706;28;35280;-91
2021/06/02 10:18:24;;;;;;;;;;;;;;;25.94;25.63;100123.41;4176247;34;34369;-91
2021/06/02 10:21:09;;;;;;;;;;;;;;;25.79;25.68;100122.31;4443909;28;34505;-89
2021/06/02 10:23:45;;;;;;;;;;;;;;;26.34;25.68;100113.34;4274986;28;532147;-88
2021/06/02 10:26:19;;;;;;;;;;;;;;;26.94;28.78;100125.22;4180843;34;33379;-96
2021/06/02 10:29:18;;;;;;;;;;;;;;;26.80;25.76;100127.00;4285071;28;33567;31
2021/06/02 10:32:10;;;;;;;;;;;;;;;27.72;26.33;100125.44;4193070;34;34898;-88
2021/06/02 10:34:44;;;;;;;;;;;;;;;27.94;25.91;100124.94;4192228;34;34605;-90
2021/06/02 10:37:18;;;;;;;;;;;;;;;28.09;23.47;100117.59;4298493;28;35037;-89
2021/06/02 10:39:52;;;;;;;;;;;;;;;28.39;23.54;100113.62;4281606;28;33765;-89
2021/06/02 10:42:28;;;;;;;;;;;;;;;28.64;24.44;100114.41;4439425;28;34771;-89
2021/06/02 10:45:09;;;;;;;;;;;;;;;28.46;24.92;100114.09;4739004;28;34027;31
2021/06/02 10:48:04;;;;;;;;;;;;;;;28.46;26.13;100113.22;4420227;28;35786;-89
2021/06/02 10:50:47;;;;;;;;;;;;;;;28.34;24.64;100119.25;4400852;28;32580;-88
2021/06/02 10:53:24;;;;;;;;;;;;;;;28.34;23.63;100117.28;4450197;28;33698;-86
2021/06/02 10:59:45;;;;;;;;;;;;;;;28.57;26.12;100125.88;4101436;28;33597;-89
2021/06/02 11:02:28;;;;;;;;;;;;;;;28.87;22.75;100112.69;4215731;33;33233;-89
2021/06/02 11:08:08;;;;;;;;;;;;;;;27.93;24.26;100128.84;4372423;28;33649;-88
2021/06/02 11:10:55;;;;;;;;;;;;;;;26.69;26.29;100119.84;4203711;34;32591;-89
2021/06/02 11:13:28;;;;;;;;;;;;;;;26.57;27.39;100121.00;4194220;34;34064;-89
2021/06/02 11:16:00;;;;;;;;;;;;;;;26.49;28.03;100118.00;4179170;34;35012;-90
2021/06/02 11:18:36;;;;;;;;;;;;;;;26.24;25.90;100123.34;4168897;34;32386;-94
2021/06/02 11:27:21;;;;;;;;;;;;;;;25.10;29.42;100126.47;4582119;28;33185;-88
2021/06/02 11:36:24;;;;;;;;;;;;;;;25.58;30.76;100126.25;4824404;28;20046;-89
2021/06/02 11:42:09;;;;;;;;;;;;;;;26.39;30.69;100118.84;4350644;28;20412;-88
2021/06/02 11:45:17;;;;;;;;;;;;;;;26.40;30.24;100115.78;4245034;28;33253;-88
2021/06/02 11:51:04;;;;;;;;;;;;;;;26.86;26.84;100133.34;4499740;28;19990;-88
2021/06/02 11:53:40;;;;;;;;;;;;;;;26.73;30.24;100129.25;4210762;34;34735;-89
2021/06/02 11:56:17;;;;;;;;;;;;;;;26.32;31.16;100132.16;4237745;28;33730;-88
2021/06/02 11:59:04;;;;;;;;;;;;;;;26.50;29.61;100119.63;4346087;28;33987;31
2021/06/02 12:01:37;;;;;;;;;;;;;;;26.55;30.65;100123.19;4220336;33;33639;-88
2021/06/02 12:07:24;;;;;;;;;;;;;;;27.02;27.29;100128.50;3504065;28;19993;-88
2021/06/02 12:10:08;;;;;;;;;;;;;;;27.09;29.29;100131.78;4400931;28;34818;31
2021/06/02 12:12:42;;;;;;;;;;;;;;;26.52;28.00;100125.72;4208565;34;34630;-88
2021/06/02 12:15:16;;;;;;;;;;;;;;;27.00;26.00;100119.66;4200317;34;34069;-88
2021/06/02 12:17:49;;;;;;;;;;;;;;;26.68;25.59;100118.19;4202363;34;33323;-90
2021/06/02 12:20:28;;;;;;;;;;;;;;;26.06;27.07;100115.66;4208422;34;33656;-91
2021/06/02 12:23:34;;;;;;;;;;;;;;;26.18;27.72;100118.94;4212450;33;32232;-91
2021/06/02 12:26:27;;;;;;;;;;;;;;;26.32;25.57;100123.84;4219042;33;34834;-90
2021/06/02 12:29:11;;;;;;;;;;;;;;;26.60;28.69;100114.87;4219167;33;31887;-93
2021/06/02 12:31:59;;;;;;;;;;;;;;;26.22;27.32;100114.47;4209471;34;34028;-91
2021/06/02 12:34:41;;;;;;;;;;;;;;;26.41;28.97;100116.62;4217664;33;34408;-90
2021/06/02 12:37:29;;;;;;;;;;;;;;;26.94;27.49;100125.22;4210099;34;34012;-92
2021/06/02 12:40:30;;;;;;;;;;;;;;;27.21;25.09;100123.91;4192751;34;32933;-90
2021/06/02 12:43:14;;;;;;;;;;;;;;;27.40;25.86;100123.25;4208308;34;36012;-89
2021/06/02 12:46:12;;;;;;;;;;;;;;;27.75;26.86;100121.25;4209443;34;36058;-91
2021/06/02 12:48:47;;;;;;;;;;;;;;;28.15;25.18;100116.41;4202375;34;33945;-91
2021/06/02 12:51:27;;;;;;;;;;;;;;;28.02;25.52;100119.91;4211409;34;32924;-90
2021/06/02 12:54:17;;;;;;;;;;;;;;;27.71;24.88;100120.19;4212792;33;33678;-88
2021/06/02 12:57:00;;;;;;;;;;;;;;;27.99;24.73;100127.72;4203157;34;35303;-90
2021/06/02 12:59:50;;;;;;;;;;;;;;;27.10;25.76;100122.34;4270152;28;33644;-96
2021/06/02 13:02:23;;;;;;;;;;;;;;;26.88;25.45;100129.16;4218572;33;30444;-96
2021/06/02 13:05:10;;;;;;;;;;;;;;;27.40;24.93;100126.03;4178433;34;32560;-96
2021/06/02 13:08:08;;;;;;;;;;;;;;;27.62;24.84;100112.50;4189741;34;36801;-96
2021/06/02 13:11:05;;;;;;;;;;;;;;;27.37;24.48;100121.06;4201087;28;34854;-89
2021/06/02 13:13:39;;;;;;;;;;;;;;;26.94;24.74;100119.66;4190438;34;33093;-89
2021/06/02 13:16:25;;;;;;;;;;;;;;;26.59;24.58;100121.53;4217873;34;35012;-96
2021/06/02 13:19:05;;;;;;;;;;;;;;;27.11;26.00;100124.84;4234882;28;34068;-90
2021/06/02 13:21:38;;;;;;;;;;;;;;;27.13;25.85;100128.16;4227666;33;33770;-89
2021/06/02 13:24:12;;;;;;;;;;;;;;;27.06;23.96;100124.03;4210650;33;32969;-90
2021/06/02 13:26:45;;;;;;;;;;;;;;;27.18;26.08;100124.50;4231413;33;34491;-96
2021/06/02 13:29:22;;;;;;;;;;;;;;;27.76;24.49;100122.94;4234675;33;34121;-96
2021/06/02 13:32:00;;;;;;;;;;;;;;;27.41;25.68;100122.13;4232583;33;33641;-96
2021/06/02 13:34:47;;;;;;;;;;;;;;;27.65;24.17;100123.03;4220393;33;33957;-96
2021/06/02 13:37:43;;;;;;;;;;;;;;;27.39;24.52;100125.19;4164035;34;35335;-90
2021/06/02 13:40:17;;;;;;;;;;;;;;;27.62;25.04;100118.06;4184385;34;34845;-96
2021/06/02 13:43:17;;;;;;;;;;;;;;;28.16;24.25;100126.41;4191212;34;34791;-96
2021/06/02 13:45:58;;;;;;;;;;;;;;;28.49;26.53;100129.34;4185787;34;35725;-89
2021/06/02 13:48:38;;;;;;;;;;;;;;;28.49;24.86;100118.22;4197839;34;37713;-96
2021/06/02 13:51:37;;;;;;;;;;;;;;;28.47;25.12;100124.06;4206573;34;34178;-96
2021/06/02 13:54:33;;;;;;;;;;;;;;;28.66;22.74;100126.88;4200744;33;34167;-89
2021/06/02 13:57:11;;;;;;;;;;;;;;;28.56;23.70;100115.88;4234312;33;33411;-90
2021/06/02 13:59:45;;;;;;;;;;;;;;;28.41;24.70;100119.69;4234125;33;34833;-89
2021/06/02 14:02:21;;;;;;;;;;;;;;;28.62;27.24;100114.72;4216297;33;34681;-89
2021/06/02 14:04:55;;;;;;;;;;;;;;;28.70;24.92;100111.28;4215032;33;33978;-89
2021/06/02 14:07:28;;;;;;;;;;;;;;;28.72;25.23;100115.72;4243747;33;33697;-88
2021/06/02 14:10:01;;;;;;;;;;;;;;;28.73;26.62;100117.34;4209778;34;34388;-89
2021/06/02 14:12:36;;;;;;;;;;;;;;;28.59;26.20;100117.25;4218833;34;34885;-96
2021/06/02 14:15:24;;;;;;;;;;;;;;;28.42;25.04;100113.00;4194938;34;33816;-88
2021/06/02 14:17:57;;;;;;;;;;;;;;;28.28;23.77;100118.47;4195186;34;34595;-96
2021/06/02 14:20:48;;;;;;;;;;;;;;;28.30;26.17;100110.66;4200781;34;33234;-89
2021/06/02 14:23:21;;;;;;;;;;;;;;;28.40;25.24;100115.28;4218268;34;34609;-96
2021/06/02 14:26:11;;;;;;;;;;;;;;;28.33;26.09;100114.81;4183181;34;34723;-89
2021/06/02 14:28:44;;;;;;;;;;;;;;;28.35;26.85;100121.72;4226891;33;33916;-96
2021/06/02 14:31:37;;;;;;;;;;;;;;;28.42;28.84;100115.78;4214880;34;32968;-88
2021/06/02 14:34:10;;;;;;;;;;;;;;;28.22;25.18;100118.81;4215520;33;34807;-89
2021/06/02 14:36:43;;;;;;;;;;;;;;;28.17;26.44;100122.50;4234517;28;34299;-89
2021/06/02 14:39:16;;;;;;;;;;;;;;;27.90;26.47;100123.88;4219745;33;33008;-89
2021/06/02 14:41:51;;;;;;;;;;;;;;;27.79;27.40;100122.34;4219558;34;34920;-89
2021/06/02 14:44:24;;;;;;;;;;;;;;;27.62;29.58;100123.59;4237220;33;33856;-90
2021/06/02 14:47:01;;;;;;;;;;;;;;;27.42;29.37;100124.59;4205383;33;35806;-96
2021/06/02 14:49:39;;;;;;;;;;;;;;;27.40;29.13;100126.03;4201137;34;31741;-89
2021/06/02 14:52:27;;;;;;;;;;;;;;;27.01;30.29;100132.41;4195319;34;35225;-89
2021/06/02 14:55:00;;;;;;;;;;;;;;;26.71;31.76;100129.53;4198970;34;36332;-89
2021/06/02 14:57:33;;;;;;;;;;;;;;;26.63;31.22;100126.50;4203608;34;34678;-89
2021/06/02 15:00:06;;;;;;;;;;;;;;;26.57;29.48;100121.00;4206268;33;32877;-89
2021/06/02 15:02:43;;;;;;;;;;;;;;;26.44;30.07;100121.59;4206075;34;34067;-89
2021/06/02 15:08:53;;;;;;;;;;;;;;;26.37;29.27;100121.91;4350009;28;33221;-88
2021/06/02 15:11:27;;;;;;;;;;;;;;;26.32;29.14;100121.94;4191311;34;33252;-90
2021/06/02 15:13:59;;;;;;;;;;;;;;;26.18;30.59;100121.72;4178573;34;35026;-88
2021/06/02 15:16:33;;;;;;;;;;;;;;;25.93;27.65;100124.50;4187412;34;33724;-88
2021/06/02 15:19:05;;;;;;;;;;;;;;;25.93;29.75;100121.75;4160614;33;32409;-87
2021/06/02 15:21:39;;;;;;;;;;;;;;;25.94;28.84;100126.19;4157950;34;33154;-87
2021/06/02 15:24:12;;;;;;;;;;;;;;;25.98;31.03;100128.09;4175373;34;33980;-88
2021/06/02 15:26:48;;;;;;;;;;;;;;;26.03;28.68;100113.44;4190855;34;34100;-87
2021/06/02 15:29:39;;;;;;;;;;;;;;;25.99;28.99;100112.34;4187758;34;33903;-88
2021/06/02 15:32:17;;;;;;;;;;;;;;;26.09;32.19;100120.62;4194533;34;33000;-88
2021/06/02 15:34:50;;;;;;;;;;;;;;;25.55;31.13;100122.94;4172874;34;33939;-88
2021/06/02 15:37:34;;;;;;;;;;;;;;;25.77;30.23;100112.66;4172515;34;33922;-94
2021/06/02 15:40:08;;;;;;;;;;;;;;;25.86;29.43;100119.28;4180833;34;33840;-87
2021/06/02 15:42:42;;;;;;;;;;;;;;;26.01;30.91;100107.38;4217607;33;33377;-88
2021/06/02 15:45:15;;;;;;;;;;;;;;;25.99;31.22;100107.66;4216424;34;34028;-88
2021/06/02 15:47:48;;;;;;;;;;;;;;;26.03;28.27;100099.59;4203502;33;33837;-87
2021/06/02 15:50:21;;;;;;;;;;;;;;;25.96;29.35;100107.34;4204048;34;34613;-88
2021/06/02 15:52:56;;;;;;;;;;;;;;;26.04;33.06;100109.56;4204279;34;34058;-88
2021/06/02 15:55:29;;;;;;;;;;;;;;;26.15;29.29;100108.41;4209726;34;35133;-88
2021/06/02 15:58:10;;;;;;;;;;;;;;;26.12;31.43;100108.97;4209037;34;34847;-88
2021/06/02 16:00:43;;;;;;;;;;;;;;;25.91;32.34;100116.50;4207449;34;34574;-88
2021/06/02 16:03:16;;;;;;;;;;;;;;;25.84;32.71;100115.94;4217055;33;32852;-88
2021/06/02 16:05:49;;;;;;;;;;;;;;;25.86;33.38;100116.50;4194268;34;34544;-88
2021/06/02 16:14:56;;;;;;;;;;;;;;;25.77;34.29;100119.03;4351330;28;33316;-87
2021/06/02 16:21:00;;;;;;;;;;;;;;;25.84;32.82;100118.72;4201140;34;33510;-88
2021/06/02 16:26:49;;;;;;;;;;;;;;;25.69;35.13;100111.31;4593039;28;20410;-89
2021/06/02 16:35:49;;;;;;;;;;;;;;;25.60;31.79;100107.41;4313107;28;34022;-87
2021/06/02 16:45:03;;;;;;;;;;;;;;;26.03;33.33;100118.97;4811371;28;20000;-88
2021/06/02 16:47:37;;;;;;;;;;;;;;;28.20;28.39;100116.34;4414191;28;34616;-87
2021/06/02 16:50:10;;;;;;;;;;;;;;;29.92;26.30;100115.13;4220253;33;32944;-87
2021/06/02 16:59:18;;;;;;;;;;;;;;;32.06;23.07;100111.53;4437345;28;20354;-88
2021/06/02 17:01:52;;;;;;;;;;;;;;;32.44;22.78;100107.41;4701551;28;33128;-87
2021/06/02 17:04:26;;;;;;;;;;;;;;;33.07;21.99;100097.59;4206186;34;34123;-88
2021/06/02 17:10:12;;;;;;;;;;;;;;;33.08;22.41;100101.22;4406050;28;19992;-89
2021/06/02 17:16:00;;;;;;;;;;;;;;;30.37;26.76;100105.31;4317047;28;19994;-88
2021/06/02 17:29:18;;;;;;;;;;;;;;;26.71;36.30;100134.25;4334881;28;20010;-88
2021/06/02 17:31:54;;;;;;;;;;;;;;;26.38;36.36;100131.87;4344701;28;34011;-89
2021/06/02 17:34:27;;;;;;;;;;;;;;;26.27;36.00;100121.13;4203226;34;35106;-89
2021/06/02 17:37:14;;;;;;;;;;;;;;;25.75;38.26;100132.31;4363825;28;34006;-88
2021/06/02 17:43:04;;;;;;;;;;;;;;;25.03;39.90;100124.00;4698647;28;20314;-89
2021/06/02 17:45:46;;;;;;;;;;;;;;;24.74;40.48;100124.47;4206144;34;33551;-89
2021/06/02 17:51:32;;;;;;;;;;;;;;;24.37;42.29;100130.97;4256180;28;20386;-89
2021/06/02 17:54:18;;;;;;;;;;;;;;;23.93;41.90;100132.13;4729081;28;34046;31
2021/06/02 18:00:35;;;;;;;;;;;;;;;22.90;45.78;100145.03;4370303;28;33942;31
2021/06/02 18:06:49;;;;;;;;;;;;;;;22.17;47.63;100133.38;4373091;28;20440;-88
2021/06/02 18:19:47;;;;;;;;;;;;;;;20.69;49.66;100143.56;4765934;28;19998;31
2021/06/02 18:22:29;;;;;;;;;;;;;;;20.33;51.21;100142.81;4366782;28;33595;31
2021/06/02 18:37:58;;;;;;;;;;;;;;;19.11;52.61;100165.16;4442421;28;20008;-90
2021/06/02 18:40:31;;;;;;;;;;;;;;;18.47;52.19;100170.19;4221217;33;33783;-89
2021/06/02 18:46:19;;;;;;;;;;;;;;;18.25;54.86;100167.94;4431244;28;19990;-89
2021/06/02 18:48:52;;;;;;;;;;;;;;;18.02;55.13;100178.69;4216079;34;33101;-89
2021/06/02 18:51:25;;;;;;;;;;;;;;;17.50;57.07;100178.91;4217717;34;35065;-89
2021/06/02 18:53:59;;;;;;;;;;;;;;;17.96;55.52;100180.44;4307069;28;33810;-90
2021/06/02 18:56:53;;;;;;;;;;;;;;;17.72;56.21;100184.84;4672498;28;34696;31
2021/06/02 18:59:25;;;;;;;;;;;;;;;17.47;56.69;100197.44;4231367;33;33340;-89
2021/06/02 19:02:13;;;;;;;;;;;;;;;17.19;57.47;100197.00;4841286;28;33263;31
2021/06/02 19:05:01;;;;;;;;;;;;;;;16.91;58.34;100201.78;4284000;28;34450;-88
2021/06/02 19:08:14;;;;;;;;;;;;;;;16.64;58.48;100201.03;4715243;28;31996;31